Time;durP1;ratioP1;P1;durP2;ratioP2;P2;SDS_P1;SDS_P2;PMS_P1;PMS_P2;Temp;Humidity;BMP_temperature;BMP_pressure;BME280_temperature;BME280_humidity;BME280_pressure;Samples;Min_cycle;Max_cycle;Signal;HPM_P1;HPM_P2
2024/03/17 00:00:29;;;;;;;0.40;0.40;;;;;;;4.79;100.00;100091.66;5053092;28;20514;-57
2024/03/17 00:02:57;;;;;;;0.50;0.50;;;;;;;4.66;100.00;100088.81;5053324;28;20044;-57
2024/03/17 00:05:24;;;;;;;0.47;0.47;;;;;;;4.49;100.00;100082.84;5053473;28;20087;-57
2024/03/17 00:07:51;;;;;;;0.50;0.50;;;;;;;4.93;100.00;100077.56;5054119;28;20643;-57
2024/03/17 00:10:19;;;;;;;0.50;0.50;;;;;;;5.00;100.00;100076.81;5044602;28;20120;-57
2024/03/17 00:12:46;;;;;;;0.40;0.40;;;;;;;5.09;100.00;100083.66;5045953;28;20397;-58
2024/03/17 00:15:14;;;;;;;0.40;0.40;;;;;;;5.21;100.00;100076.88;5051360;28;20498;-58
2024/03/17 00:17:40;;;;;;;0.47;0.47;;;;;;;5.29;100.00;100076.78;5060554;28;20123;-57
2024/03/17 00:20:18;;;;;;;0.50;0.50;;;;;;;5.31;100.00;100074.72;5054482;28;20546;-57
2024/03/17 00:22:46;;;;;;;0.40;0.40;;;;;;;5.36;100.00;100072.31;5054482;28;20075;-57
2024/03/17 00:25:14;;;;;;;0.50;0.50;;;;;;;5.39;100.00;100076.44;5054428;28;20390;-57
2024/03/17 00:27:43;;;;;;;0.50;0.50;;;;;;;5.33;100.00;100064.75;5054269;28;20036;-59
2024/03/17 00:30:12;;;;;;;0.50;0.50;;;;;;;5.26;100.00;100074.47;5052220;28;20507;-59
2024/03/17 00:32:39;;;;;;;0.50;0.50;;;;;;;5.29;100.00;100068.81;5052032;28;20048;-57
2024/03/17 00:35:07;;;;;;;0.40;0.40;;;;;;;5.36;100.00;100067.00;5058446;28;20179;-57
2024/03/17 00:37:33;;;;;;;0.40;0.40;;;;;;;5.30;100.00;100073.09;5056728;28;20049;-59
2024/03/17 00:40:01;;;;;;;0.30;0.30;;;;;;;5.34;100.00;100065.56;5057754;28;20093;-57
2024/03/17 00:42:30;;;;;;;0.40;0.40;;;;;;;5.37;100.00;100071.34;5051976;28;20518;-57
2024/03/17 00:44:56;;;;;;;0.50;0.50;;;;;;;5.38;100.00;100067.66;5050329;28;20168;-57
2024/03/17 00:47:23;;;;;;;0.50;0.50;;;;;;;5.30;100.00;100062.47;5052691;28;20033;-57
2024/03/17 00:49:50;;;;;;;0.50;0.50;;;;;;;5.25;100.00;100067.50;5053420;28;20040;-57
2024/03/17 00:52:17;;;;;;;0.45;0.45;;;;;;;5.26;100.00;100063.00;5049962;28;20071;-57
2024/03/17 00:54:43;;;;;;;0.43;0.43;;;;;;;5.20;100.00;100059.28;5044233;28;20048;-57
2024/03/17 00:57:10;;;;;;;0.50;0.50;;;;;;;5.14;100.00;100060.84;5058827;28;20197;-57
2024/03/17 00:59:38;;;;;;;0.50;0.50;;;;;;;4.83;100.00;100055.75;5055430;28;20537;-59
2024/03/17 01:02:05;;;;;;;0.50;0.50;;;;;;;4.71;100.00;100058.06;5050432;28;20060;-57
2024/03/17 01:04:33;;;;;;;0.47;0.47;;;;;;;4.84;100.00;100045.97;5056851;28;20094;-58
2024/03/17 01:07:00;;;;;;;0.50;0.50;;;;;;;4.77;100.00;100045.88;5052983;28;20041;-57
2024/03/17 01:09:28;;;;;;;0.40;0.40;;;;;;;4.60;100.00;100041.78;5054827;28;20048;-57
2024/03/17 01:11:54;;;;;;;0.40;0.40;;;;;;;4.38;100.00;100044.31;5051693;28;20525;-57
2024/03/17 01:14:21;;;;;;;0.45;0.45;;;;;;;4.33;100.00;100049.34;5052115;28;20517;-58
2024/03/17 01:16:51;;;;;;;0.50;0.50;;;;;;;4.26;100.00;100035.16;5061553;28;20364;-57
2024/03/17 01:19:17;;;;;;;0.50;0.50;;;;;;;4.19;100.00;100034.22;5052937;28;20127;-57
2024/03/17 01:21:44;;;;;;;0.40;0.40;;;;;;;3.96;100.00;100040.41;5048536;28;20149;-57
2024/03/17 01:24:10;;;;;;;0.47;0.47;;;;;;;3.87;100.00;100030.91;5056654;28;20044;-58
2024/03/17 01:26:37;;;;;;;0.47;0.47;;;;;;;3.85;100.00;100032.91;5049668;28;20411;-57
2024/03/17 01:29:03;;;;;;;0.50;0.50;;;;;;;3.88;100.00;100027.22;5052081;28;20135;-59
2024/03/17 01:31:30;;;;;;;0.40;0.40;;;;;;;3.89;100.00;100023.56;5051051;28;20441;-59
2024/03/17 01:33:57;;;;;;;0.50;0.50;;;;;;;3.83;100.00;100019.00;5053852;28;20055;-57
2024/03/17 01:36:25;;;;;;;0.30;0.30;;;;;;;3.80;100.00;100019.34;5044134;28;20048;-57
2024/03/17 01:38:51;;;;;;;0.40;0.40;;;;;;;3.75;100.00;100011.13;5048067;28;20069;-56
2024/03/17 01:41:18;;;;;;;0.35;0.35;;;;;;;3.77;100.00;100009.09;5053278;28;20182;-57
2024/03/17 01:43:44;;;;;;;0.60;0.60;;;;;;;3.75;100.00;100006.63;5048797;28;20037;-57
2024/03/17 01:46:12;;;;;;;0.40;0.40;;;;;;;3.87;100.00;100004.38;5053672;28;20056;-57
2024/03/17 01:48:38;;;;;;;0.40;0.40;;;;;;;3.79;100.00;100012.38;5059627;28;20068;-57
2024/03/17 01:51:07;;;;;;;0.47;0.47;;;;;;;3.64;100.00;100010.53;5054186;28;20117;-57
2024/03/17 01:53:34;;;;;;;0.52;0.52;;;;;;;3.52;100.00;100001.34;5051249;28;20513;-57
2024/03/17 01:56:00;;;;;;;0.40;0.40;;;;;;;3.61;100.00;99997.63;5056915;28;20148;-57
2024/03/17 01:58:27;;;;;;;0.40;0.40;;;;;;;3.56;100.00;99994.69;5055866;28;20285;-57
2024/03/17 02:00:53;;;;;;;0.32;0.32;;;;;;;3.43;100.00;99983.84;5054851;28;20048;-56
2024/03/17 02:03:20;;;;;;;0.50;0.50;;;;;;;3.07;100.00;99987.09;5054924;28;20756;-57
2024/03/17 02:05:47;;;;;;;0.50;0.50;;;;;;;2.93;100.00;99986.00;5047301;28;20091;-57
2024/03/17 02:08:16;;;;;;;0.50;0.50;;;;;;;2.89;100.00;99983.88;5054580;28;20102;-57
2024/03/17 02:10:42;;;;;;;0.47;0.47;;;;;;;3.00;100.00;99981.66;5049508;28;20136;-57
2024/03/17 02:13:09;;;;;;;0.60;0.60;;;;;;;3.03;100.00;99980.50;5050669;28;20075;-57
2024/03/17 02:15:35;;;;;;;0.57;0.57;;;;;;;2.94;100.00;99970.94;5048099;28;20109;-57
2024/03/17 02:18:03;;;;;;;0.30;0.30;;;;;;;3.01;100.00;99966.59;5051536;28;20045;-57
2024/03/17 02:23:12;;;;;;;0.52;0.52;;;;;;;2.95;100.00;99968.13;5057933;28;20392;-57
2024/03/17 02:25:38;;;;;;;0.50;0.50;;;;;;;2.93;100.00;99969.31;5042951;28;20406;-57
2024/03/17 02:28:05;;;;;;;0.30;0.30;;;;;;;2.88;100.00;99966.34;5052799;28;20041;-56
2024/03/17 02:30:31;;;;;;;0.50;0.50;;;;;;;2.91;100.00;99973.94;5048416;28;20041;-57
2024/03/17 02:32:58;;;;;;;0.40;0.40;;;;;;;2.79;100.00;99984.91;5053131;28;20062;-57
2024/03/17 02:35:25;;;;;;;0.40;0.40;;;;;;;2.80;100.00;99980.47;5054784;28;20317;-57
2024/03/17 02:37:52;;;;;;;0.50;0.50;;;;;;;2.77;100.00;99973.69;5051583;28;20544;-57
2024/03/17 02:40:20;;;;;;;0.43;0.43;;;;;;;2.90;100.00;99977.59;5046638;28;20148;-58
2024/03/17 02:42:47;;;;;;;0.40;0.40;;;;;;;2.88;100.00;99977.75;5053580;28;20065;-60
2024/03/17 02:45:15;;;;;;;0.60;0.60;;;;;;;2.86;100.00;99981.59;5053845;28;20044;-57
2024/03/17 02:47:42;;;;;;;0.50;0.50;;;;;;;2.64;100.00;99985.81;5048957;28;20041;-60
2024/03/17 02:50:10;;;;;;;0.57;0.57;;;;;;;2.47;100.00;99987.72;5045540;28;20388;-57
2024/03/17 02:52:37;;;;;;;0.43;0.43;;;;;;;2.51;100.00;99981.91;5057109;28;20140;-57
2024/03/17 02:55:05;;;;;;;0.50;0.50;;;;;;;2.56;100.00;99979.56;5050505;28;20046;-59
2024/03/17 02:57:34;;;;;;;0.60;0.60;;;;;;;2.74;100.00;99975.84;5044602;28;20045;-59
2024/03/17 03:00:03;;;;;;;0.60;0.60;;;;;;;2.77;100.00;99986.94;5052286;28;20090;-58
2024/03/17 03:02:31;;;;;;;0.50;0.50;;;;;;;2.83;100.00;99984.59;5054654;28;20045;-58
2024/03/17 03:04:58;;;;;;;0.40;0.40;;;;;;;2.59;100.00;99983.69;5057457;28;20062;-57
2024/03/17 03:07:25;;;;;;;0.30;0.30;;;;;;;2.44;100.00;99985.41;5049272;28;20048;-58
2024/03/17 03:09:52;;;;;;;0.43;0.43;;;;;;;2.53;100.00;99979.09;5056284;28;20102;-58
2024/03/17 03:12:19;;;;;;;0.55;0.55;;;;;;;2.33;100.00;99976.84;5048588;28;20049;-58
2024/03/17 03:14:49;;;;;;;0.45;0.45;;;;;;;2.16;100.00;99983.19;5056028;28;20041;-58
2024/03/17 03:17:16;;;;;;;0.40;0.40;;;;;;;2.26;100.00;99975.88;5054737;28;20185;-57
2024/03/17 03:19:43;;;;;;;0.50;0.50;;;;;;;2.32;100.00;99985.78;5051837;28;20490;-58
2024/03/17 03:22:11;;;;;;;0.40;0.40;;;;;;;2.43;100.00;99981.94;5056211;28;20111;-58
2024/03/17 03:24:38;;;;;;;0.50;0.50;;;;;;;2.28;100.00;99976.53;5056401;28;20082;-59
2024/03/17 03:27:05;;;;;;;0.50;0.50;;;;;;;2.50;100.00;99982.09;5044444;28;20048;-57
2024/03/17 03:29:33;;;;;;;0.60;0.60;;;;;;;2.59;100.00;99979.22;5048427;28;20068;-58
2024/03/17 03:32:02;;;;;;;0.50;0.50;;;;;;;2.75;100.00;99986.28;5053566;28;20045;-58
2024/03/17 03:34:29;;;;;;;0.40;0.40;;;;;;;2.86;100.00;99989.53;5049986;28;20044;-58
2024/03/17 03:36:59;;;;;;;0.50;0.50;;;;;;;2.87;100.00;99981.41;5054984;28;20095;-58
2024/03/17 03:39:31;;;;;;;0.40;0.40;;;;;;;2.93;100.00;99982.53;5054951;28;20047;-56
2024/03/17 03:41:58;;;;;;;0.55;0.55;;;;;;;2.89;100.00;99984.69;5056530;28;20566;-57
2024/03/17 03:44:25;;;;;;;0.60;0.60;;;;;;;2.73;100.00;99985.63;5049523;28;20086;-58
2024/03/17 03:46:56;;;;;;;0.63;0.63;;;;;;;2.62;100.00;99978.06;5053400;28;20044;-58
2024/03/17 03:49:24;;;;;;;0.47;0.47;;;;;;;2.40;100.00;99973.50;5049841;28;20048;-58
2024/03/17 03:51:51;;;;;;;0.50;0.50;;;;;;;2.60;100.00;99977.41;5050078;28;20051;-58
2024/03/17 03:54:18;;;;;;;0.50;0.50;;;;;;;2.63;100.00;99982.34;5053653;28;20052;-58
2024/03/17 03:56:45;;;;;;;0.50;0.50;;;;;;;2.32;100.00;99972.56;5048566;28;20491;-57
2024/03/17 03:59:13;;;;;;;0.50;0.50;;;;;;;2.33;100.00;99970.75;5051859;28;20563;-58
2024/03/17 04:01:40;;;;;;;0.60;0.60;;;;;;;2.65;100.00;99983.03;5052456;28;20736;-58
2024/03/17 04:04:07;;;;;;;0.50;0.50;;;;;;;2.78;100.00;99977.16;5055880;28;20051;-57
2024/03/17 04:06:37;;;;;;;0.52;0.52;;;;;;;2.50;100.00;99974.97;5051615;28;20053;-58
2024/03/17 04:09:05;;;;;;;0.60;0.60;;;;;;;2.67;100.00;99962.50;5061128;28;20533;-58
2024/03/17 04:11:33;;;;;;;0.50;0.50;;;;;;;2.63;100.00;99966.47;5047918;28;20354;-58
2024/03/17 04:14:01;;;;;;;0.55;0.55;;;;;;;2.65;100.00;99956.53;5056071;28;20075;-58
2024/03/17 04:16:28;;;;;;;0.60;0.60;;;;;;;2.44;100.00;99954.47;5059324;28;20052;-58
2024/03/17 04:18:55;;;;;;;0.50;0.50;;;;;;;2.70;100.00;99953.38;5056636;28;20047;-58
2024/03/17 04:21:22;;;;;;;0.60;0.60;;;;;;;2.66;100.00;99958.19;5055206;28;20098;-58
2024/03/17 04:23:50;;;;;;;0.60;0.60;;;;;;;2.70;100.00;99953.38;5057009;28;20073;-58
2024/03/17 04:26:18;;;;;;;0.50;0.50;;;;;;;2.71;100.00;99960.31;5051080;28;20134;-58
2024/03/17 04:28:45;;;;;;;0.50;0.50;;;;;;;2.85;100.00;99961.41;5058555;28;20681;-58
2024/03/17 04:31:12;;;;;;;0.60;0.60;;;;;;;2.71;100.00;99955.03;5053451;28;20044;-58
2024/03/17 04:33:39;;;;;;;0.47;0.47;;;;;;;2.66;100.00;99955.53;5052273;28;20048;-58
2024/03/17 04:36:08;;;;;;;0.40;0.40;;;;;;;2.34;100.00;99965.25;5053934;28;20070;-58
2024/03/17 04:38:35;;;;;;;0.50;0.50;;;;;;;2.47;100.00;99971.81;5054823;28;20751;-57
2024/03/17 04:41:09;;;;;;;0.50;0.50;;;;;;;2.41;100.00;99970.69;5057560;28;20540;-58
2024/03/17 04:43:36;;;;;;;0.60;0.60;;;;;;;2.18;100.00;99967.16;5054175;28;20104;-57
2024/03/17 04:46:05;;;;;;;0.40;0.40;;;;;;;2.13;100.00;99957.09;5051570;28;20805;-57
2024/03/17 04:48:32;;;;;;;0.60;0.60;;;;;;;2.15;100.00;99961.19;5053786;28;20060;-59
2024/03/17 04:51:00;;;;;;;0.50;0.50;;;;;;;2.01;100.00;99963.72;5055977;28;20045;-58
2024/03/17 04:53:27;;;;;;;0.50;0.50;;;;;;;2.24;100.00;99956.69;5054482;28;20163;-57
2024/03/17 04:56:06;;;;;;;0.60;0.60;;;;;;;2.52;100.00;99961.56;5049508;28;20553;-58
2024/03/17 04:58:34;;;;;;;0.50;0.50;;;;;;;2.41;100.00;99959.31;5054422;28;20036;-57
2024/03/17 05:01:06;;;;;;;0.50;0.50;;;;;;;2.28;100.00;99955.38;5054710;28;20051;-57
2024/03/17 05:03:33;;;;;;;0.65;0.65;;;;;;;2.19;100.00;99953.75;5053178;28;20151;-57
2024/03/17 05:06:03;;;;;;;0.50;0.50;;;;;;;2.15;100.00;99953.28;5054588;28;20065;-57
2024/03/17 05:08:30;;;;;;;0.40;0.40;;;;;;;2.11;100.00;99948.50;5059251;28;20049;-58
2024/03/17 05:10:58;;;;;;;0.50;0.50;;;;;;;1.97;100.00;99949.19;5053709;28;20508;-57
2024/03/17 05:13:28;;;;;;;0.52;0.52;;;;;;;2.00;100.00;99949.69;5055580;28;20037;-58
2024/03/17 05:15:55;;;;;;;0.50;0.50;;;;;;;1.92;100.00;99945.25;5059030;28;20040;-57
2024/03/17 05:18:22;;;;;;;0.40;0.40;;;;;;;1.80;100.00;99949.22;5053234;28;20112;-58
2024/03/17 05:20:58;;;;;;;0.50;0.50;;;;;;;1.81;100.00;99948.22;5055688;28;20041;-58
2024/03/17 05:23:26;;;;;;;0.40;0.40;;;;;;;1.34;100.00;99956.84;5053660;28;20041;-58
2024/03/17 05:25:53;;;;;;;0.60;0.60;;;;;;;1.49;100.00;99949.09;5053892;28;20070;-58
2024/03/17 05:28:20;;;;;;;0.57;0.57;;;;;;;1.49;100.00;99965.75;5047017;28;20045;-58
2024/03/17 05:30:50;;;;;;;0.60;0.60;;;;;;;1.64;100.00;99959.81;5055649;28;20127;-58
2024/03/17 05:33:17;;;;;;;0.50;0.50;;;;;;;1.77;100.00;99952.19;5060348;28;20935;-58
2024/03/17 05:35:50;;;;;;;0.52;0.52;;;;;;;1.83;100.00;99946.25;5050144;28;20041;-58
2024/03/17 05:38:19;;;;;;;0.60;0.60;;;;;;;1.80;100.00;99956.31;5053183;28;20076;-57
2024/03/17 05:40:53;;;;;;;0.70;0.70;;;;;;;1.70;100.00;99961.81;5050338;28;20040;-58
2024/03/17 05:43:20;;;;;;;0.50;0.50;;;;;;;1.53;100.00;99954.88;5050684;28;20040;-58
2024/03/17 05:45:49;;;;;;;0.60;0.60;;;;;;;1.59;100.00;99960.31;5044061;28;20046;-58
2024/03/17 05:48:16;;;;;;;0.52;0.52;;;;;;;1.75;100.00;99964.75;5049959;28;20037;-58
2024/03/17 05:50:43;;;;;;;0.50;0.50;;;;;;;1.64;100.00;99951.88;5086735;27;20783;-58
2024/03/17 05:53:10;;;;;;;0.50;0.50;;;;;;;1.50;100.00;99954.22;5053318;28;20109;-58
2024/03/17 05:55:38;;;;;;;0.60;0.60;;;;;;;1.89;100.00;99940.28;5053956;28;20059;-58
2024/03/17 05:58:05;;;;;;;0.50;0.50;;;;;;;2.14;100.00;99945.50;5055667;28;20166;-58
2024/03/17 06:00:33;;;;;;;0.60;0.60;;;;;;;2.18;100.00;99946.00;5049391;28;20136;-58
2024/03/17 06:03:02;;;;;;;0.60;0.60;;;;;;;2.77;100.00;99944.56;5049050;28;20148;-58
2024/03/17 06:05:33;;;;;;;0.60;0.60;;;;;;;2.77;100.00;99939.28;5051157;28;20044;-58
2024/03/17 06:08:02;;;;;;;0.40;0.40;;;;;;;2.83;100.00;99937.75;5060036;28;20048;-58
2024/03/17 06:10:29;;;;;;;0.60;0.60;;;;;;;3.01;100.00;99937.47;5053011;28;20045;-58
2024/03/17 06:12:57;;;;;;;0.52;0.52;;;;;;;3.45;100.00;99939.47;5053056;28;20052;-58
2024/03/17 06:15:24;;;;;;;0.70;0.70;;;;;;;3.97;100.00;99941.28;5048470;28;20056;-62
2024/03/17 06:17:52;;;;;;;0.60;0.60;;;;;;;5.16;100.00;99941.06;5045923;28;20071;-58
2024/03/17 06:20:21;;;;;;;0.52;0.52;;;;;;;6.03;100.00;99942.63;5055918;28;20510;-58
2024/03/17 06:22:48;;;;;;;0.60;0.60;;;;;;;6.94;96.57;99936.25;5056583;28;20123;-58
2024/03/17 06:25:16;;;;;;;0.65;0.65;;;;;;;7.74;87.89;99935.31;5051443;28;20049;-58
2024/03/17 06:27:43;;;;;;;0.43;0.43;;;;;;;6.16;94.53;99941.88;5048792;28;20127;-57
2024/03/17 06:30:13;;;;;;;0.60;0.60;;;;;;;6.05;100.00;99946.72;5049864;28;20118;-59
2024/03/17 06:32:41;;;;;;;0.50;0.50;;;;;;;7.85;93.40;99951.72;5050307;28;20040;-58
2024/03/17 06:35:09;;;;;;;0.45;0.45;;;;;;;9.22;82.72;99953.28;5049915;28;20064;-59
2024/03/17 06:37:38;;;;;;;0.30;0.30;;;;;;;8.67;83.57;99960.97;5050993;28;20535;-59
2024/03/17 06:40:06;;;;;;;0.30;0.30;;;;;;;7.43;90.32;99954.56;5052249;28;20068;-57
2024/03/17 06:42:33;;;;;;;0.40;0.40;;;;;;;8.15;89.65;99955.56;5051133;28;20167;-58
2024/03/17 06:45:00;;;;;;;0.40;0.40;;;;;;;7.29;91.26;99951.09;5052035;28;20048;-58
2024/03/17 06:47:27;;;;;;;0.20;0.20;;;;;;;6.41;99.57;99951.00;5053206;28;20127;-58
2024/03/17 06:49:55;;;;;;;0.20;0.20;;;;;;;6.11;100.00;99955.75;5053973;28;20621;-58
2024/03/17 06:52:22;;;;;;;0.20;0.20;;;;;;;5.65;100.00;99956.22;5051960;28;20153;-58
2024/03/17 06:54:50;;;;;;;0.20;0.20;;;;;;;5.27;100.00;99963.69;5058412;28;20117;-58
2024/03/17 06:57:17;;;;;;;0.30;0.30;;;;;;;5.21;100.00;99957.25;5058010;28;20565;-58
2024/03/17 06:59:45;;;;;;;0.40;0.40;;;;;;;5.19;100.00;99959.28;5059275;28;20066;-58
2024/03/17 07:02:17;;;;;;;0.40;0.40;;;;;;;5.51;100.00;99952.63;5052763;28;20055;-58
2024/03/17 07:04:44;;;;;;;0.40;0.40;;;;;;;5.58;100.00;99947.38;5053746;28;20053;-58
2024/03/17 07:07:11;;;;;;;0.40;0.40;;;;;;;5.39;100.00;99947.03;5052557;28;20049;-58
2024/03/17 07:09:39;;;;;;;0.40;0.40;;;;;;;5.34;100.00;99938.81;5048703;28;20107;-58
2024/03/17 07:12:08;;;;;;;0.30;0.30;;;;;;;5.49;100.00;99943.19;5050591;28;20033;-58
2024/03/17 07:14:35;;;;;;;0.30;0.30;;;;;;;5.39;100.00;99936.41;5046602;28;20061;-58
2024/03/17 07:17:02;;;;;;;0.30;0.30;;;;;;;5.57;100.00;99932.44;5059838;28;20040;-58
2024/03/17 07:19:30;;;;;;;0.30;0.30;;;;;;;5.65;100.00;99932.28;5050095;28;20090;-56
2024/03/17 07:21:58;;;;;;;0.40;0.40;;;;;;;5.83;100.00;99934.47;5043429;28;20118;-58
2024/03/17 07:24:25;;;;;;;0.30;0.30;;;;;;;6.39;100.00;99930.91;5053459;28;20055;-58
2024/03/17 07:26:52;;;;;;;0.40;0.40;;;;;;;6.75;100.00;99940.50;5050299;28;20048;-58
2024/03/17 07:29:21;;;;;;;0.30;0.30;;;;;;;6.98;100.00;99937.50;5053769;28;20052;-57
2024/03/17 07:31:48;;;;;;;0.30;0.30;;;;;;;7.28;100.00;99937.94;5050585;28;20521;-58
2024/03/17 07:34:15;;;;;;;0.40;0.40;;;;;;;7.35;100.00;99936.13;5056273;28;20051;-58
2024/03/17 07:36:42;;;;;;;0.40;0.40;;;;;;;6.78;100.00;99934.78;5052715;28;20063;-58
2024/03/17 07:39:09;;;;;;;0.30;0.30;;;;;;;7.94;100.00;99940.63;5050640;28;20123;-58
2024/03/17 07:41:36;;;;;;;0.30;0.30;;;;;;;8.21;100.00;99937.88;5056738;28;20045;-58
2024/03/17 07:44:03;;;;;;;0.40;0.40;;;;;;;7.65;100.00;99941.06;5061752;28;20046;-57
2024/03/17 07:46:32;;;;;;;0.30;0.30;;;;;;;8.00;100.00;99949.63;5051153;28;20119;-58
2024/03/17 07:48:59;;;;;;;0.40;0.40;;;;;;;7.49;100.00;99948.44;5053770;28;20044;-58
2024/03/17 07:51:26;;;;;;;0.40;0.40;;;;;;;8.61;100.00;99953.78;5051546;28;20040;-58
2024/03/17 07:53:53;;;;;;;0.50;0.50;;;;;;;9.60;92.52;99952.38;5057643;28;20146;-58
2024/03/17 07:56:21;;;;;;;0.30;0.30;;;;;;;9.28;92.03;99952.44;5050119;28;20051;-58
2024/03/17 07:58:50;;;;;;;0.32;0.32;;;;;;;9.34;89.71;99939.22;5047170;28;20053;-58
2024/03/17 08:01:17;;;;;;;0.30;0.30;;;;;;;9.60;87.87;99947.03;5056906;28;20124;-58
2024/03/17 08:03:49;;;;;;;0.30;0.30;;;;;;;10.04;91.15;99936.38;5057677;28;20517;-57
2024/03/17 08:06:16;;;;;;;0.30;0.30;;;;;;;9.92;92.62;99942.44;5049790;28;20053;-57
2024/03/17 08:08:43;;;;;;;0.30;0.30;;;;;;;10.38;86.28;99950.25;5042948;28;20460;-57
2024/03/17 08:11:10;;;;;;;0.20;0.20;;;;;;;10.24;85.06;99946.88;5054742;28;20076;-57
2024/03/17 08:13:37;;;;;;;0.30;0.30;;;;;;;10.11;85.45;99948.66;5048270;28;20047;-58
2024/03/17 08:16:06;;;;;;;0.20;0.20;;;;;;;10.01;87.75;99945.66;5048758;28;20052;-57
2024/03/17 08:18:33;;;;;;;0.20;0.20;;;;;;;9.02;90.98;99941.91;5048575;28;20139;-58
2024/03/17 08:21:03;;;;;;;0.20;0.20;;;;;;;8.81;96.09;99949.22;5050363;28;20051;-58
2024/03/17 08:23:31;;;;;;;0.20;0.20;;;;;;;10.02;100.00;99949.16;5050209;28;20048;-58
2024/03/17 08:25:58;;;;;;;0.30;0.30;;;;;;;9.69;95.42;99953.75;5049068;28;20521;-58
2024/03/17 08:28:27;;;;;;;0.20;0.20;;;;;;;11.19;96.37;99951.69;5052328;28;20075;-58
2024/03/17 08:30:54;;;;;;;0.20;0.20;;;;;;;10.36;88.26;99953.97;5048006;28;20395;-59
2024/03/17 08:33:22;;;;;;;0.30;0.30;;;;;;;9.60;90.25;99954.25;5051050;28;20049;-59
2024/03/17 08:35:59;;;;;;;0.20;0.20;;;;;;;8.73;97.78;99941.41;5052218;28;20052;-59
2024/03/17 08:38:27;;;;;;;0.30;0.30;;;;;;;8.78;100.00;99940.78;5055451;28;20107;-59
2024/03/17 08:40:55;;;;;;;0.30;0.30;;;;;;;9.72;100.00;99939.94;5055652;28;20036;-57
2024/03/17 08:43:22;;;;;;;0.20;0.20;;;;;;;8.88;93.83;99929.63;5057703;28;20187;-57
2024/03/17 08:45:56;;;;;;;0.20;0.20;;;;;;;9.13;100.00;99924.34;5057906;28;20407;-59
2024/03/17 08:48:23;;;;;;;0.30;0.30;;;;;;;8.63;98.37;99914.31;5056781;28;20053;-60
2024/03/17 08:50:53;;;;;;;0.40;0.40;;;;;;;9.81;100.00;99913.72;5058968;28;20385;-59
2024/03/17 08:53:21;;;;;;;0.20;0.20;;;;;;;9.31;93.47;99907.53;5056395;28;20044;-59
2024/03/17 08:55:49;;;;;;;0.20;0.20;;;;;;;9.36;95.06;99910.38;5052980;28;20044;-59
2024/03/17 08:58:16;;;;;;;0.40;0.40;;;;;;;9.59;92.24;99905.25;5051903;28;20437;-59
2024/03/17 09:00:43;;;;;;;0.30;0.30;;;;;;;10.20;90.55;99911.66;5049112;28;20056;-59
2024/03/17 09:03:11;;;;;;;0.40;0.40;;;;;;;10.46;90.29;99904.38;5060536;28;20280;-59
2024/03/17 09:05:39;;;;;;;0.30;0.30;;;;;;;11.73;84.94;99898.78;5052904;28;20681;-59
2024/03/17 09:08:08;;;;;;;0.30;0.30;;;;;;;12.44;79.71;99902.22;5050246;28;20058;-59
2024/03/17 09:10:40;;;;;;;0.30;0.30;;;;;;;12.85;72.56;99910.25;5049335;28;20055;-59
2024/03/17 09:13:09;;;;;;;0.30;0.30;;;;;;;13.24;73.89;99902.34;5049563;28;20045;-59
2024/03/17 09:15:38;;;;;;;0.20;0.20;;;;;;;13.43;71.20;99906.47;5052697;28;20041;-59
2024/03/17 09:18:05;;;;;;;0.20;0.20;;;;;;;13.49;72.12;99910.88;5055265;28;20131;-59
2024/03/17 09:20:33;;;;;;;0.20;0.20;;;;;;;13.58;74.53;99906.72;5057667;28;20060;-60
2024/03/17 09:23:03;;;;;;;0.20;0.20;;;;;;;13.33;73.01;99901.72;5052530;28;20140;-59
2024/03/17 09:25:30;;;;;;;;;;;;;;;13.78;72.47;99908.91;5054704;28;20079;-59
2024/03/17 09:27:58;;;;;;;0.10;0.10;;;;;;;14.12;69.73;99908.81;5047139;28;19930;-59
2024/03/17 09:30:27;;;;;;;0.20;0.20;;;;;;;13.84;70.91;99917.88;5053840;28;20068;-59
2024/03/17 09:32:54;;;;;;;0.20;0.20;;;;;;;13.75;70.67;99913.94;5071605;28;20041;-59
2024/03/17 09:35:21;;;;;;;0.10;0.10;;;;;;;13.24;72.82;99910.41;5065747;28;20159;-59
2024/03/17 09:37:48;;;;;;;0.10;0.10;;;;;;;14.36;69.31;99905.91;5057762;28;20036;-59
2024/03/17 09:40:16;;;;;;;0.10;0.10;;;;;;;14.53;66.52;99909.38;5048198;28;20247;-59
2024/03/17 09:42:43;;;;;;;0.20;0.20;;;;;;;13.04;68.99;99900.94;5053504;28;20049;-59
2024/03/17 09:45:13;;;;;;;0.20;0.20;;;;;;;13.13;74.80;99893.28;5056751;28;20048;-59
2024/03/17 09:47:43;;;;;;;0.20;0.20;;;;;;;14.31;68.01;99890.47;5051994;28;20134;-59
2024/03/17 09:50:14;;;;;;;0.10;0.10;;;;;;;14.53;68.69;99905.84;5050133;28;20052;-59
2024/03/17 09:52:42;;;;;;;0.20;0.20;;;;;;;13.95;67.08;99905.34;5063077;28;20036;-59
2024/03/17 09:55:10;;;;;;;0.20;0.20;;;;;;;13.59;71.54;99900.25;5058749;28;20513;-58
2024/03/17 09:57:37;;;;;;;0.20;0.20;;;;;;;13.06;69.71;99898.00;5049925;28;20047;-59
2024/03/17 10:00:12;;;;;;;0.17;0.17;;;;;;;12.20;77.37;99898.75;5058877;28;20049;-58
2024/03/17 10:02:45;;;;;;;0.20;0.20;;;;;;;14.23;69.12;99904.41;5066447;28;20049;-59
2024/03/17 10:05:20;;;;;;;0.17;0.17;;;;;;;13.29;67.42;99910.53;5058270;28;20049;-58
2024/03/17 10:07:47;;;;;;;0.13;0.13;;;;;;;9.71;86.72;99908.06;5058798;28;20052;-59
2024/03/17 10:10:17;;;;;;;0.20;0.20;;;;;;;12.09;80.89;99913.03;5062365;28;20064;-58
2024/03/17 10:12:45;;;;;;;0.28;0.28;;;;;;;12.49;79.59;99907.69;5056688;28;20052;-58
2024/03/17 10:15:13;;;;;;;0.20;0.20;;;;;;;13.65;77.38;99908.41;5044285;28;20052;-59
2024/03/17 10:17:40;;;;;;;0.20;0.20;;;;;;;13.48;77.03;99903.88;5060545;28;20151;-58
2024/03/17 10:20:16;;;;;;;0.20;0.20;;;;;;;12.08;74.58;99908.69;5058572;28;20416;-59
2024/03/17 10:22:59;;;;;;;0.20;0.20;;;;;;;13.77;77.11;99906.44;5056929;28;20160;-58
2024/03/17 10:25:27;;;;;;;0.20;0.20;;;;;;;13.53;70.62;99909.31;5055655;28;20051;-59
2024/03/17 10:27:54;;;;;;;0.20;0.20;;;;;;;12.60;75.38;99900.63;5052742;28;20043;-58
2024/03/17 10:30:24;;;;;;;0.20;0.20;;;;;;;13.55;69.43;99906.38;5064748;28;20608;-58
2024/03/17 10:32:55;;;;;;;0.20;0.20;;;;;;;12.93;72.33;99901.81;5055857;28;20055;-58
2024/03/17 10:35:31;;;;;;;0.30;0.30;;;;;;;12.94;73.22;99901.56;5057525;28;20048;-58
2024/03/17 10:37:58;;;;;;;0.20;0.20;;;;;;;13.61;70.19;99897.31;5059519;28;20435;-58
2024/03/17 10:40:26;;;;;;;0.20;0.20;;;;;;;14.29;63.95;99892.59;5057985;28;20040;-58
2024/03/17 10:42:53;;;;;;;0.20;0.20;;;;;;;13.35;66.15;99898.78;5059715;28;20044;-58
2024/03/17 10:45:21;;;;;;;0.15;0.15;;;;;;;14.89;61.85;99891.69;5059271;28;20679;-58
2024/03/17 10:47:50;;;;;;;0.10;0.10;;;;;;;12.21;72.24;99891.53;5056492;28;20045;-58
2024/03/17 10:50:19;;;;;;;0.20;0.20;;;;;;;14.42;64.21;99897.59;5049624;28;20044;-58
2024/03/17 10:52:49;;;;;;;0.20;0.20;;;;;;;14.46;67.83;99900.63;5053089;28;20041;-58
2024/03/17 10:55:24;;;;;;;0.20;0.20;;;;;;;12.95;70.39;99900.50;5063654;28;20494;-58
2024/03/17 10:57:51;;;;;;;0.20;0.20;;;;;;;12.65;71.67;99898.03;5057043;28;20040;-58
2024/03/17 11:00:21;;;;;;;0.10;0.10;;;;;;;14.59;67.96;99889.47;5047643;28;20064;-57
2024/03/17 11:02:49;;;;;;;0.10;0.10;;;;;;;12.94;71.79;99882.72;5053711;28;20133;-57
2024/03/17 11:05:22;;;;;;;0.20;0.20;;;;;;;11.89;75.54;99885.75;5056818;28;20040;-58
2024/03/17 11:07:54;;;;;;;0.20;0.20;;;;;;;14.48;67.49;99884.19;5059402;28;20131;-58
2024/03/17 11:10:23;;;;;;;0.20;0.20;;;;;;;13.49;66.62;99889.31;5048196;28;20041;-60
2024/03/17 11:12:51;;;;;;;0.10;0.10;;;;;;;14.06;72.14;99882.88;5053374;28;20411;-60
2024/03/17 11:15:40;;;;;;;0.20;0.20;;;;;;;14.86;65.63;99881.41;5051601;28;20041;-60
2024/03/17 11:18:30;;;;;;;0.13;0.13;;;;;;;13.33;67.63;99879.38;5053678;28;20049;-57
2024/03/17 11:20:58;;;;;;;0.20;0.20;;;;;;;11.20;80.15;99873.63;5042707;28;20060;-59
2024/03/17 11:23:29;;;;;;;0.10;0.10;;;;;;;12.03;75.75;99879.03;5056566;28;20049;-59
2024/03/17 11:25:57;;;;;;;0.13;0.13;;;;;;;11.66;78.08;99872.06;5053464;28;20048;-57
2024/03/17 11:28:46;;;;;;;0.20;0.20;;;;;;;12.50;77.98;99870.88;5048477;28;20127;-57
2024/03/17 11:31:40;;;;;;;0.22;0.22;;;;;;;13.23;72.80;99881.84;5050658;28;20486;-57
2024/03/17 11:34:25;;;;;;;0.20;0.20;;;;;;;13.71;74.18;99872.41;5047512;28;20094;-57
2024/03/17 11:36:51;;;;;;;0.20;0.20;;;;;;;13.10;69.08;99875.75;5045514;28;20064;-57
2024/03/17 11:39:23;;;;;;;0.20;0.20;;;;;;;13.39;70.39;99875.69;5051636;28;20048;-59
2024/03/17 11:41:49;;;;;;;0.20;0.20;;;;;;;12.64;71.22;99877.59;5060667;28;20067;-58